Weather at Springdale Municipal Airport

Public forecast

Using degrees Fahrenheit for public forecast. Weather courtesy of forecast.io.

Current aviation weather report (METAR) for Springdale Municipal Airport

Retrieved 2021/04/12 12:48 UTC (23 minutes ago):

KASG 121248Z 36006KT 10SM CLR 12/07 A2992

Closest aviation forecast (TAF) to Springdale Municipal Airport

Closest forecast is Drake Field, 10.6 nm (19.6 km) SSW. Retrieved 2021/04/12 12:30 UTC (41 minutes ago):

TAF KFYV 121128Z 1212/1312 02009G18KT P6SM SCT150 FM122100 02010G19KT P6SM BKN090 FM130200 02012G21KT 6SM -SHRA BKN060 TEMPO 1304/1308 3SM -TSRA BKN050CB